createdAt,value
2023-04-18T00:00:38.183Z,1015.19
2023-04-18T00:01:38.223Z,1015.20
2023-04-18T00:02:38.310Z,1015.19
2023-04-18T00:03:38.403Z,1015.17
2023-04-18T00:04:38.257Z,1015.16
2023-04-18T00:05:38.122Z,1015.20
2023-04-18T00:06:38.130Z,1015.16
2023-04-18T00:07:38.132Z,1015.17
2023-04-18T00:08:38.117Z,1015.15
2023-04-18T00:09:38.137Z,1015.15
2023-04-18T00:10:38.087Z,1015.14
2023-04-18T00:11:38.069Z,1015.13
2023-04-18T00:12:38.054Z,1015.13
2023-04-18T00:13:38.041Z,1015.14
2023-04-18T00:14:38.054Z,1015.15
2023-04-18T00:15:38.029Z,1015.17
2023-04-18T00:16:38.073Z,1015.15
2023-04-18T00:17:38.037Z,1015.14
2023-04-18T00:18:37.996Z,1015.14
2023-04-18T00:19:38.000Z,1015.16
2023-04-18T00:20:37.974Z,1015.13
2023-04-18T00:21:37.978Z,1015.18
2023-04-18T00:22:37.985Z,1015.12
2023-04-18T00:23:37.954Z,1015.20
2023-04-18T00:24:37.940Z,1015.13
2023-04-18T00:25:37.921Z,1015.13
2023-04-18T00:26:37.941Z,1015.12
2023-04-18T00:27:37.911Z,1015.14
2023-04-18T00:28:37.919Z,1015.14
2023-04-18T00:29:37.881Z,1015.12
2023-04-18T00:30:37.911Z,1015.16
2023-04-18T00:31:37.854Z,1015.15
2023-04-18T00:32:37.972Z,1015.14
2023-04-18T00:33:37.861Z,1015.13
2023-04-18T00:34:37.848Z,1015.15
2023-04-18T00:35:37.826Z,1015.15
2023-04-18T00:36:37.838Z,1015.16
2023-04-18T00:37:37.817Z,1015.16
2023-04-18T00:38:37.809Z,1015.18
2023-04-18T00:39:37.796Z,1015.16
2023-04-18T00:40:37.828Z,1015.16
2023-04-18T00:41:37.773Z,1015.16
2023-04-18T00:42:37.754Z,1015.16
2023-04-18T00:43:37.756Z,1015.16
2023-04-18T00:44:37.738Z,1015.15
2023-04-18T00:45:37.740Z,1015.15
2023-04-18T00:46:37.773Z,1015.14
2023-04-18T00:47:38.460Z,1015.14
2023-04-18T00:48:37.695Z,1015.14
2023-04-18T00:49:37.693Z,1015.16
2023-04-18T00:50:37.723Z,1015.16
2023-04-18T00:51:37.667Z,1015.17
2023-04-18T00:52:37.658Z,1015.15
2023-04-18T00:53:37.642Z,1015.14
2023-04-18T00:54:37.638Z,1015.17
2023-04-18T00:55:37.627Z,1015.15
2023-04-18T00:56:37.618Z,1015.17
2023-04-18T00:57:37.603Z,1015.16
2023-04-18T00:58:37.598Z,1015.17
2023-04-18T00:59:37.580Z,1015.16
2023-04-18T01:00:37.588Z,1015.17
2023-04-18T01:01:37.577Z,1015.17
2023-04-18T01:02:37.803Z,1015.17
2023-04-18T01:03:37.787Z,1015.16
2023-04-18T01:04:38.786Z,1015.18
2023-04-18T01:05:37.524Z,1015.18
2023-04-18T01:06:37.537Z,1015.16
2023-04-18T01:07:37.514Z,1015.15
2023-04-18T01:08:37.519Z,1015.16
2023-04-18T01:09:37.483Z,1015.16
2023-04-18T01:10:37.483Z,1015.16
2023-04-18T01:11:37.469Z,1015.17
2023-04-18T01:12:37.457Z,1015.15
2023-04-18T01:13:37.439Z,1015.17
2023-04-18T01:14:37.431Z,1015.18
2023-04-18T01:15:37.489Z,1015.18
2023-04-18T01:16:37.421Z,1015.16
2023-04-18T01:17:37.453Z,1015.17
2023-04-18T01:18:37.400Z,1015.15
2023-04-18T01:19:37.377Z,1015.14
2023-04-18T01:20:37.373Z,1015.15
2023-04-18T01:21:37.576Z,1015.12
2023-04-18T01:22:37.377Z,1015.12
2023-04-18T01:23:37.350Z,1015.10
2023-04-18T01:24:37.333Z,1015.09
2023-04-18T01:25:37.353Z,1015.09
2023-04-18T01:26:37.324Z,1015.08
2023-04-18T01:27:37.301Z,1015.08
2023-04-18T01:28:37.312Z,1015.06
2023-04-18T01:29:38.939Z,1015.05
2023-04-18T01:30:37.273Z,1015.05
2023-04-18T01:31:37.308Z,1015.05
2023-04-18T01:32:37.267Z,1015.04
2023-04-18T01:33:37.259Z,1015.04
2023-04-18T01:34:37.251Z,1015.02
2023-04-18T01:35:37.229Z,1015.01
2023-04-18T01:36:37.214Z,1015.00
2023-04-18T01:37:37.190Z,1015.00
2023-04-18T01:38:37.203Z,1015.00
2023-04-18T01:39:37.167Z,1014.98
2023-04-18T01:40:37.256Z,1014.99
2023-04-18T01:41:37.161Z,1015.00
2023-04-18T01:42:37.150Z,1015.01
2023-04-18T01:43:37.143Z,1015.03
2023-04-18T01:44:37.156Z,1015.03
2023-04-18T01:45:37.126Z,1015.00
2023-04-18T01:46:37.157Z,1015.02
2023-04-18T01:47:37.139Z,1015.01
2023-04-18T01:48:37.090Z,1014.99
2023-04-18T01:49:37.085Z,1014.98
2023-04-18T01:50:37.076Z,1014.95
2023-04-18T01:51:37.063Z,1014.95
2023-04-18T01:52:37.113Z,1014.96
2023-04-18T01:53:37.041Z,1014.96
2023-04-18T01:54:37.029Z,1014.96
2023-04-18T01:55:37.015Z,1014.93
2023-04-18T01:56:37.045Z,1014.91
2023-04-18T01:57:36.996Z,1014.91
2023-04-18T01:58:36.985Z,1014.90
2023-04-18T01:59:37.000Z,1014.91
2023-04-18T02:00:36.976Z,1014.89
2023-04-18T02:01:36.951Z,1014.89
2023-04-18T02:02:37.081Z,1014.87
2023-04-18T02:03:37.114Z,1014.86
2023-04-18T02:04:36.929Z,1014.90
2023-04-18T02:05:36.928Z,1014.88
2023-04-18T02:06:36.928Z,1014.89
2023-04-18T02:07:36.902Z,1014.89
2023-04-18T02:08:36.888Z,1014.89
2023-04-18T02:09:37.055Z,1014.86
2023-04-18T02:10:36.886Z,1014.83
2023-04-18T02:11:36.859Z,1014.82
2023-04-18T02:12:36.865Z,1014.83
2023-04-18T02:13:36.855Z,1014.83
2023-04-18T02:14:36.825Z,1014.83
2023-04-18T02:15:36.812Z,1014.82
2023-04-18T02:16:36.852Z,1014.82
2023-04-18T02:17:36.835Z,1014.80
2023-04-18T02:18:36.796Z,1014.81
2023-04-18T02:19:36.792Z,1014.81
2023-04-18T02:20:36.768Z,1014.76
2023-04-18T02:21:36.755Z,1014.81
2023-04-18T02:22:36.746Z,1014.78
2023-04-18T02:23:36.745Z,1014.79
2023-04-18T02:24:36.736Z,1014.80
2023-04-18T02:25:36.709Z,1014.78
2023-04-18T02:26:36.721Z,1014.76
2023-04-18T02:27:36.693Z,1014.78
2023-04-18T02:28:36.683Z,1014.75
2023-04-18T02:29:36.702Z,1014.73
2023-04-18T02:30:36.674Z,1014.75
2023-04-18T02:31:36.704Z,1014.74
2023-04-18T02:32:36.658Z,1014.75
2023-04-18T02:33:36.638Z,1014.75
2023-04-18T02:34:36.618Z,1014.78
2023-04-18T02:35:36.620Z,1014.77
2023-04-18T02:36:36.599Z,1014.78
2023-04-18T02:37:36.608Z,1014.78
2023-04-18T02:38:36.580Z,1014.80
2023-04-18T02:39:36.579Z,1014.79
2023-04-18T02:40:36.562Z,1014.78
2023-04-18T02:41:36.552Z,1014.79
2023-04-18T02:42:36.539Z,1014.81
2023-04-18T02:43:36.531Z,1014.82
2023-04-18T02:44:36.532Z,1014.81
2023-04-18T02:45:36.549Z,1014.82
2023-04-18T02:46:36.505Z,1014.82
2023-04-18T02:47:47.013Z,1014.83
2023-04-18T02:48:36.599Z,1014.81
2023-04-18T02:49:36.494Z,1014.83
2023-04-18T02:50:36.462Z,1014.82
2023-04-18T02:51:36.458Z,1014.83
2023-04-18T02:52:36.436Z,1014.79
2023-04-18T02:53:36.461Z,1014.81
2023-04-18T02:54:36.422Z,1014.82
2023-04-18T02:55:36.409Z,1014.80
2023-04-18T02:56:36.416Z,1014.78
2023-04-18T02:57:36.388Z,1014.79
2023-04-18T02:58:36.400Z,1014.79
2023-04-18T02:59:36.367Z,1014.78
2023-04-18T03:00:36.374Z,1014.77
2023-04-18T03:01:36.413Z,1014.79
2023-04-18T03:02:36.440Z,1014.76
2023-04-18T03:03:36.379Z,1014.75
2023-04-18T03:04:36.390Z,1014.76
2023-04-18T03:05:36.334Z,1014.74
2023-04-18T03:06:36.301Z,1014.75
2023-04-18T03:07:36.300Z,1014.73
2023-04-18T03:08:36.269Z,1014.73
2023-04-18T03:09:36.271Z,1014.72
2023-04-18T03:10:36.255Z,1014.75
2023-04-18T03:11:36.253Z,1014.73
2023-04-18T03:12:36.250Z,1014.75
2023-04-18T03:13:36.231Z,1014.75
2023-04-18T03:14:36.217Z,1014.77
2023-04-18T03:15:36.289Z,1014.73
2023-04-18T03:16:36.196Z,1014.74
2023-04-18T03:17:36.264Z,1014.77
2023-04-18T03:18:36.181Z,1014.77
2023-04-18T03:19:36.170Z,1014.78
2023-04-18T03:20:36.162Z,1014.75
2023-04-18T03:21:36.142Z,1014.80
2023-04-18T03:22:36.134Z,1014.80
2023-04-18T03:23:36.120Z,1014.81
2023-04-18T03:24:36.108Z,1014.80
2023-04-18T03:25:36.118Z,1014.81
2023-04-18T03:26:36.093Z,1014.83
2023-04-18T03:27:36.092Z,1014.82
2023-04-18T03:28:36.076Z,1014.81
2023-04-18T03:29:36.062Z,1014.81
2023-04-18T03:30:36.046Z,1014.84
2023-04-18T03:31:36.070Z,1014.83
2023-04-18T03:32:36.044Z,1014.85
2023-04-18T03:33:36.025Z,1014.84
2023-04-18T03:34:36.013Z,1014.83
2023-04-18T03:35:36.025Z,1014.83
2023-04-18T03:36:35.985Z,1014.85
2023-04-18T03:37:35.984Z,1014.86
2023-04-18T03:38:35.967Z,1014.85
2023-04-18T03:39:35.968Z,1014.84
2023-04-18T03:40:35.950Z,1014.85
2023-04-18T03:41:35.943Z,1014.88
2023-04-18T03:42:35.937Z,1014.89
2023-04-18T03:43:35.947Z,1014.89
2023-04-18T03:44:35.916Z,1014.89
2023-04-18T03:45:35.935Z,1014.87
2023-04-18T03:46:35.976Z,1014.91
2023-04-18T03:47:35.904Z,1014.90
2023-04-18T03:48:35.905Z,1014.95
2023-04-18T03:49:35.884Z,1014.90
2023-04-18T03:50:35.857Z,1014.92
2023-04-18T03:51:35.838Z,1014.95
2023-04-18T03:52:35.828Z,1014.91
2023-04-18T03:53:35.817Z,1014.93
2023-04-18T03:54:35.847Z,1014.94
2023-04-18T03:55:35.828Z,1014.94
2023-04-18T03:56:35.802Z,1014.98
2023-04-18T03:57:35.797Z,1014.97
2023-04-18T03:58:35.764Z,1014.99
2023-04-18T03:59:35.757Z,1014.99
2023-04-18T04:00:35.757Z,1014.99
2023-04-18T04:01:35.768Z,1014.98
2023-04-18T04:02:35.862Z,1015.01
2023-04-18T04:03:35.780Z,1014.99
2023-04-18T04:04:35.736Z,1015.02
2023-04-18T04:05:35.706Z,1015.00
2023-04-18T04:06:35.646Z,1015.04
2023-04-18T04:07:35.629Z,1015.03
2023-04-18T04:08:35.616Z,1015.08
2023-04-18T04:09:35.662Z,1015.07
2023-04-18T04:10:35.633Z,1015.09
2023-04-18T04:11:35.610Z,1015.09
2023-04-18T04:12:35.565Z,1015.10
2023-04-18T04:13:35.560Z,1015.09
2023-04-18T04:14:35.548Z,1015.08
2023-04-18T04:15:35.604Z,1015.09
2023-04-18T04:16:35.624Z,1015.08
2023-04-18T04:17:35.542Z,1015.08
2023-04-18T04:18:35.508Z,1015.08
2023-04-18T04:19:35.497Z,1015.09
2023-04-18T04:20:35.501Z,1015.09
2023-04-18T04:21:35.476Z,1015.09
2023-04-18T04:22:35.470Z,1015.12
2023-04-18T04:23:35.454Z,1015.13
2023-04-18T04:24:35.437Z,1015.15
2023-04-18T04:25:35.456Z,1015.14
2023-04-18T04:26:35.440Z,1015.14
2023-04-18T04:27:35.418Z,1015.16
2023-04-18T04:28:35.391Z,1015.18
2023-04-18T04:29:35.392Z,1015.19
2023-04-18T04:30:35.374Z,1015.19
2023-04-18T04:31:35.419Z,1015.23
2023-04-18T04:32:35.379Z,1015.18
2023-04-18T04:33:35.353Z,1015.21
2023-04-18T04:34:35.360Z,1015.22
2023-04-18T04:35:35.322Z,1015.19
2023-04-18T04:36:35.294Z,1015.23
2023-04-18T04:37:35.293Z,1015.22
2023-04-18T04:38:35.285Z,1015.25
2023-04-18T04:39:35.277Z,1015.22
2023-04-18T04:40:35.271Z,1015.23
2023-04-18T04:41:35.272Z,1015.24
2023-04-18T04:42:35.245Z,1015.26
2023-04-18T04:43:35.234Z,1015.28
2023-04-18T04:44:35.232Z,1015.27
2023-04-18T04:45:35.293Z,1015.31
2023-04-18T04:46:35.200Z,1015.26
2023-04-18T04:47:35.240Z,1015.30
2023-04-18T04:48:35.195Z,1015.30
2023-04-18T04:49:35.167Z,1015.33
2023-04-18T04:50:35.150Z,1015.34
2023-04-18T04:51:35.134Z,1015.36
2023-04-18T04:52:35.144Z,1015.37
2023-04-18T04:53:35.121Z,1015.36
2023-04-18T04:54:35.106Z,1015.37
2023-04-18T04:55:35.125Z,1015.39
2023-04-18T04:56:35.087Z,1015.40
2023-04-18T04:57:35.089Z,1015.42
2023-04-18T04:58:35.079Z,1015.41
2023-04-18T04:59:35.054Z,1015.43
2023-04-18T05:00:35.046Z,1015.43
2023-04-18T05:01:35.096Z,1015.45
2023-04-18T05:02:35.114Z,1015.46
2023-04-18T05:03:35.492Z,1015.46
2023-04-18T05:04:35.118Z,1015.45
2023-04-18T05:05:35.012Z,1015.44
2023-04-18T05:06:34.977Z,1015.45
2023-04-18T05:07:35.002Z,1015.46
2023-04-18T05:08:34.965Z,1015.45
2023-04-18T05:09:34.972Z,1015.45
2023-04-18T05:10:34.941Z,1015.43
2023-04-18T05:11:34.947Z,1015.45
2023-04-18T05:12:34.915Z,1015.46
2023-04-18T05:13:34.912Z,1015.44
2023-04-18T05:14:34.893Z,1015.47
2023-04-18T05:15:34.897Z,1015.46
2023-04-18T05:16:34.944Z,1015.48
2023-04-18T05:17:34.974Z,1015.46
2023-04-18T05:18:35.087Z,1015.45
2023-04-18T05:19:34.870Z,1015.44
2023-04-18T05:20:34.856Z,1015.45
2023-04-18T05:21:34.848Z,1015.45
2023-04-18T05:22:34.825Z,1015.45
2023-04-18T05:23:34.849Z,1015.47
2023-04-18T05:24:34.787Z,1015.48
2023-04-18T05:25:34.792Z,1015.51
2023-04-18T05:26:34.811Z,1015.53
2023-04-18T05:27:34.947Z,1015.50
2023-04-18T05:28:34.750Z,1015.48
2023-04-18T05:29:34.754Z,1015.50
2023-04-18T05:30:34.750Z,1015.52
2023-04-18T05:31:34.764Z,1015.54
2023-04-18T05:32:34.766Z,1015.53
2023-04-18T05:33:34.711Z,1015.55
2023-04-18T05:34:35.724Z,1015.55
2023-04-18T05:35:34.749Z,1015.57
2023-04-18T05:36:34.671Z,1015.59
2023-04-18T05:37:34.673Z,1015.62
2023-04-18T05:38:34.657Z,1015.62
2023-04-18T05:39:34.643Z,1015.67
2023-04-18T05:40:34.630Z,1015.63
2023-04-18T05:41:34.622Z,1015.65
2023-04-18T05:42:34.621Z,1015.68
2023-04-18T05:43:34.612Z,1015.70
2023-04-18T05:44:34.584Z,1015.73
2023-04-18T05:45:34.586Z,1015.76
2023-04-18T05:46:34.619Z,1015.77
2023-04-18T05:47:34.611Z,1015.77
2023-04-18T05:48:34.558Z,1015.79
2023-04-18T05:49:34.538Z,1015.80
2023-04-18T05:50:34.523Z,1015.81
2023-04-18T05:51:34.519Z,1015.73
2023-04-18T05:52:34.536Z,1015.78
2023-04-18T05:53:34.497Z,1015.77
2023-04-18T05:54:34.483Z,1015.78
2023-04-18T05:55:34.540Z,1015.74
2023-04-18T05:56:34.484Z,1015.79
2023-04-18T05:57:34.552Z,1015.79
2023-04-18T05:58:34.439Z,1015.75
2023-04-18T05:59:34.618Z,1015.76
2023-04-18T06:00:34.434Z,1015.81
2023-04-18T06:01:34.419Z,1015.82
2023-04-18T06:02:34.581Z,1015.87
2023-04-18T06:03:34.510Z,1015.85
2023-04-18T06:04:34.524Z,1015.87
2023-04-18T06:05:34.542Z,1015.85
2023-04-18T06:06:34.352Z,1015.90
2023-04-18T06:07:34.371Z,1015.90
2023-04-18T06:08:34.345Z,1015.92
2023-04-18T06:09:34.343Z,1015.95
2023-04-18T06:10:34.338Z,1015.95
2023-04-18T06:11:34.324Z,1015.94
2023-04-18T06:12:34.299Z,1015.95
2023-04-18T06:13:34.310Z,1015.99
2023-04-18T06:14:34.295Z,1015.94
2023-04-18T06:15:34.270Z,1016.00
2023-04-18T06:16:34.356Z,1015.95
2023-04-18T06:17:34.303Z,1015.94
2023-04-18T06:18:34.254Z,1015.97
2023-04-18T06:19:34.241Z,1016.00
2023-04-18T06:20:34.225Z,1015.96
2023-04-18T06:21:34.239Z,1015.99
2023-04-18T06:22:34.197Z,1015.97
2023-04-18T06:23:34.222Z,1015.99
2023-04-18T06:24:34.172Z,1016.01
2023-04-18T06:25:34.192Z,1016.01
2023-04-18T06:26:34.156Z,1016.06
2023-04-18T06:27:34.147Z,1016.04
2023-04-18T06:28:34.160Z,1016.03
2023-04-18T06:29:35.604Z,1016.05
2023-04-18T06:30:34.112Z,1016.07
2023-04-18T06:31:34.354Z,1016.06
2023-04-18T06:32:34.130Z,1016.08
2023-04-18T06:33:34.089Z,1016.08
2023-04-18T06:34:34.072Z,1016.06
2023-04-18T06:35:34.067Z,1016.03
2023-04-18T06:36:34.051Z,1016.04
2023-04-18T06:37:34.040Z,1016.05
2023-04-18T06:38:34.038Z,1016.04
2023-04-18T06:39:34.028Z,1016.03
2023-04-18T06:40:34.001Z,1016.02
2023-04-18T06:41:34.063Z,1016.02
2023-04-18T06:42:33.984Z,1016.06
2023-04-18T06:43:33.982Z,1016.04
2023-04-18T06:44:33.964Z,1016.10
2023-04-18T06:45:34.036Z,1016.09
2023-04-18T06:46:33.973Z,1016.07
2023-04-18T06:47:34.032Z,1016.10
2023-04-18T06:48:33.932Z,1016.13
2023-04-18T06:49:33.921Z,1016.14
2023-04-18T06:50:33.937Z,1016.11
2023-04-18T06:51:33.902Z,1016.14
2023-04-18T06:52:33.883Z,1016.14
2023-04-18T06:53:33.885Z,1016.15
2023-04-18T06:54:34.106Z,1016.12
2023-04-18T06:55:33.906Z,1016.09
2023-04-18T06:56:35.883Z,1016.09
2023-04-18T06:57:33.858Z,1016.11
2023-04-18T06:58:33.823Z,1016.09
2023-04-18T06:59:33.822Z,1016.13
2023-04-18T07:00:33.801Z,1016.11
2023-04-18T07:01:34.040Z,1016.18
2023-04-18T07:02:33.883Z,1016.16
2023-04-18T07:03:33.850Z,1016.19
2023-04-18T07:04:33.803Z,1016.16
2023-04-18T07:05:33.740Z,1016.16
2023-04-18T07:06:33.736Z,1016.16
2023-04-18T07:07:33.725Z,1016.16
2023-04-18T07:08:33.740Z,1016.16
2023-04-18T07:09:33.697Z,1016.15
2023-04-18T07:10:33.714Z,1016.15
2023-04-18T07:11:33.678Z,1016.20
2023-04-18T07:12:33.713Z,1016.18
2023-04-18T07:13:33.700Z,1016.18
2023-04-18T07:14:34.295Z,1016.18
2023-04-18T07:15:33.644Z,1016.19
2023-04-18T07:16:33.657Z,1016.21
2023-04-18T07:17:33.723Z,1016.23
2023-04-18T07:18:38.097Z,1016.24
2023-04-18T07:19:33.593Z,1016.25
2023-04-18T07:20:33.612Z,1016.25
2023-04-18T07:21:33.576Z,1016.25
2023-04-18T07:22:33.604Z,1016.24
2023-04-18T07:23:33.581Z,1016.30
2023-04-18T07:24:33.575Z,1016.33
2023-04-18T07:25:33.535Z,1016.28
2023-04-18T07:26:33.533Z,1016.29
2023-04-18T07:27:33.506Z,1016.26
2023-04-18T07:28:33.518Z,1016.29
2023-04-18T07:29:33.511Z,1016.30
2023-04-18T07:30:33.482Z,1016.30
2023-04-18T07:31:33.497Z,1016.33
2023-04-18T07:32:33.508Z,1016.32
2023-04-18T07:33:33.486Z,1016.31
2023-04-18T07:34:33.527Z,1016.36
2023-04-18T07:35:33.435Z,1016.37
2023-04-18T07:36:33.453Z,1016.36
2023-04-18T07:37:33.515Z,1016.36
2023-04-18T07:38:33.405Z,1016.34
2023-04-18T07:39:33.383Z,1016.36
2023-04-18T07:40:33.393Z,1016.37
2023-04-18T07:41:33.374Z,1016.39
2023-04-18T07:42:33.372Z,1016.35
2023-04-18T07:43:33.352Z,1016.37
2023-04-18T07:44:33.351Z,1016.40
2023-04-18T07:47:14.972Z,1016.44
2023-04-18T07:48:15.938Z,1016.47
2023-04-18T07:49:16.118Z,1016.53
2023-04-18T07:50:15.894Z,1016.46
2023-04-18T07:51:15.878Z,1016.45
2023-04-18T07:52:15.899Z,1016.43
2023-04-18T07:53:15.871Z,1016.43
2023-04-18T07:54:15.873Z,1016.44
2023-04-18T07:55:15.835Z,1016.42
2023-04-18T07:56:15.847Z,1016.42
2023-04-18T07:57:15.828Z,1016.43
2023-04-18T07:58:15.802Z,1016.39
2023-04-18T07:59:16.084Z,1016.38
2023-04-18T08:00:15.777Z,1016.38
2023-04-18T08:01:15.786Z,1016.39
2023-04-18T08:02:15.825Z,1016.42
2023-04-18T08:03:16.094Z,1016.41
2023-04-18T08:04:15.841Z,1016.45
2023-04-18T08:05:15.757Z,1016.41
2023-04-18T08:06:15.729Z,1016.45
2023-04-18T08:07:15.738Z,1016.46
2023-04-18T08:08:15.722Z,1016.41
2023-04-18T08:09:15.873Z,1016.42
2023-04-18T08:10:15.803Z,1016.43
2023-04-18T08:11:15.695Z,1016.42
2023-04-18T08:12:15.695Z,1016.46
2023-04-18T08:13:15.644Z,1016.49
2023-04-18T08:14:15.657Z,1016.50
2023-04-18T08:15:15.625Z,1016.53
2023-04-18T08:16:17.282Z,1016.55
2023-04-18T08:17:15.602Z,1016.52
2023-04-18T08:18:15.611Z,1016.47
2023-04-18T08:19:15.888Z,1016.47
2023-04-18T08:20:15.634Z,1016.48
2023-04-18T08:21:15.574Z,1016.49
2023-04-18T08:22:15.549Z,1016.41
2023-04-18T08:23:15.544Z,1016.46
2023-04-18T08:24:15.564Z,1016.43
2023-04-18T08:25:15.540Z,1016.44
2023-04-18T08:26:15.530Z,1016.52
2023-04-18T08:27:15.509Z,1016.48
2023-04-18T08:28:15.501Z,1016.48
2023-04-18T08:29:15.596Z,1016.49
2023-04-18T08:30:15.473Z,1016.51
2023-04-18T08:31:15.514Z,1016.54
2023-04-18T08:32:15.476Z,1016.54
2023-04-18T08:33:15.451Z,1016.58
2023-04-18T08:34:15.427Z,1016.55
2023-04-18T08:35:15.453Z,1016.58
2023-04-18T08:36:15.426Z,1016.61
2023-04-18T08:37:15.404Z,1016.61
2023-04-18T08:38:15.404Z,1016.61
2023-04-18T08:39:15.674Z,1016.55
2023-04-18T08:40:15.377Z,1016.57
2023-04-18T08:41:15.379Z,1016.58
2023-04-18T08:42:15.358Z,1016.59
2023-04-18T08:43:15.339Z,1016.56
2023-04-18T08:44:15.543Z,1016.58
2023-04-18T08:45:15.306Z,1016.59
2023-04-18T08:46:15.362Z,1016.59
2023-04-18T08:47:15.324Z,1016.61
2023-04-18T08:48:15.313Z,1016.58
2023-04-18T08:49:15.363Z,1016.60
2023-04-18T08:50:15.258Z,1016.63
2023-04-18T08:51:15.271Z,1016.60
2023-04-18T08:52:15.238Z,1016.61
2023-04-18T08:53:15.224Z,1016.60
2023-04-18T08:54:15.241Z,1016.67
2023-04-18T08:55:15.201Z,1016.67
2023-04-18T08:56:15.198Z,1016.63
2023-04-18T08:57:15.203Z,1016.57
2023-04-18T08:58:15.193Z,1016.63
2023-04-18T08:59:15.382Z,1016.59
2023-04-18T09:00:15.303Z,1016.59
2023-04-18T09:01:15.165Z,1016.59
2023-04-18T09:02:15.192Z,1016.60
2023-04-18T09:03:15.180Z,1016.59
2023-04-18T09:04:15.130Z,1016.63
2023-04-18T09:05:15.144Z,1016.60
2023-04-18T09:06:15.143Z,1016.61
2023-04-18T09:07:15.092Z,1016.59
2023-04-18T09:08:15.116Z,1016.62
2023-04-18T09:09:15.230Z,1016.61
2023-04-18T09:10:15.050Z,1016.64
2023-04-18T09:11:15.065Z,1016.69
2023-04-18T09:12:15.046Z,1016.67
2023-04-18T09:13:15.038Z,1016.69
2023-04-18T09:14:15.127Z,1016.77
2023-04-18T09:15:14.993Z,1016.69
2023-04-18T09:16:15.026Z,1016.72
2023-04-18T09:17:14.977Z,1016.86
2023-04-18T09:18:14.970Z,1016.78
2023-04-18T09:19:15.376Z,1016.77
2023-04-18T09:20:14.952Z,1016.71
2023-04-18T09:21:14.953Z,1016.73
2023-04-18T09:22:14.929Z,1016.68
2023-04-18T09:23:15.021Z,1016.70
2023-04-18T09:24:14.974Z,1016.72
2023-04-18T09:25:14.905Z,1016.71
2023-04-18T09:26:14.901Z,1016.68
2023-04-18T09:27:14.877Z,1016.69
2023-04-18T09:28:14.860Z,1016.71
2023-04-18T09:29:15.017Z,1016.73
2023-04-18T09:30:15.048Z,1016.69
2023-04-18T09:31:14.878Z,1016.71
2023-04-18T09:32:15.935Z,1016.69
2023-04-18T09:33:14.812Z,1016.70
2023-04-18T09:34:14.991Z,1016.74
2023-04-18T09:35:14.897Z,1016.70
2023-04-18T09:36:14.830Z,1016.75
2023-04-18T09:37:14.835Z,1016.75
2023-04-18T09:38:14.784Z,1016.69
2023-04-18T09:39:14.859Z,1016.68
2023-04-18T09:40:14.741Z,1016.67
2023-04-18T09:41:14.753Z,1016.64
2023-04-18T09:42:14.749Z,1016.64
2023-04-18T09:43:14.704Z,1016.64
2023-04-18T09:44:15.530Z,1016.63
2023-04-18T09:45:14.746Z,1016.60
2023-04-18T09:46:14.741Z,1016.61
2023-04-18T09:47:14.673Z,1016.59
2023-04-18T09:48:14.669Z,1016.67
2023-04-18T09:49:15.094Z,1016.63
2023-04-18T09:50:14.648Z,1016.57
2023-04-18T09:51:14.631Z,1016.61
2023-04-18T09:52:14.651Z,1016.61
2023-04-18T09:53:14.621Z,1016.61
2023-04-18T09:54:14.755Z,1016.52
2023-04-18T09:55:14.588Z,1016.61
2023-04-18T09:56:14.592Z,1016.51
2023-04-18T09:57:14.563Z,1016.53
2023-04-18T09:58:14.548Z,1016.59
2023-04-18T09:59:14.702Z,1016.57
2023-04-18T10:00:14.547Z,1016.53
2023-04-18T10:01:14.562Z,1016.52
2023-04-18T10:02:14.583Z,1016.50
2023-04-18T10:03:14.712Z,1016.52
2023-04-18T10:04:14.762Z,1016.64
2023-04-18T10:05:14.529Z,1016.53
2023-04-18T10:06:14.484Z,1016.55
2023-04-18T10:07:14.456Z,1016.62
2023-04-18T10:08:14.458Z,1016.59
2023-04-18T10:10:14.437Z,1016.56
2023-04-18T10:11:14.410Z,1016.61
2023-04-18T10:12:14.414Z,1016.56
2023-04-18T10:13:14.391Z,1016.66
2023-04-18T10:14:14.728Z,1016.56
2023-04-18T10:15:14.364Z,1016.56
2023-04-18T10:16:14.434Z,1016.58
2023-04-18T10:17:14.360Z,1016.56
2023-04-18T10:18:14.358Z,1016.60
2023-04-18T10:19:14.482Z,1016.49
2023-04-18T10:20:14.337Z,1016.49
2023-04-18T10:21:14.371Z,1016.48
2023-04-18T10:22:14.295Z,1016.52
2023-04-18T10:23:14.295Z,1016.47
2023-04-18T10:24:14.575Z,1016.43
2023-04-18T10:25:14.277Z,1016.42
2023-04-18T10:26:14.263Z,1016.47
2023-04-18T10:27:14.268Z,1016.45
2023-04-18T10:28:14.241Z,1016.43
2023-04-18T10:29:14.462Z,1016.42
2023-04-18T10:30:14.231Z,1016.43
2023-04-18T10:31:14.276Z,1016.40
2023-04-18T10:32:14.247Z,1016.37
2023-04-18T10:33:25.616Z,1016.37
2023-04-18T10:34:14.195Z,1016.36
2023-04-18T10:35:14.234Z,1016.39
2023-04-18T10:36:14.207Z,1016.42
2023-04-18T10:37:14.203Z,1016.38
2023-04-18T10:38:14.140Z,1016.44
2023-04-18T10:39:14.125Z,1016.45
2023-04-18T10:40:14.123Z,1016.44
2023-04-18T10:41:14.111Z,1016.39
2023-04-18T10:42:14.120Z,1016.46
2023-04-18T10:43:14.074Z,1016.40
2023-04-18T10:44:14.218Z,1016.31
2023-04-18T10:45:14.063Z,1016.32
2023-04-18T10:46:27.820Z,1016.33
2023-04-18T10:47:14.074Z,1016.29
2023-04-18T10:48:14.061Z,1016.27
2023-04-18T10:49:14.283Z,1016.26
2023-04-18T10:50:14.055Z,1016.26
2023-04-18T10:51:13.989Z,1016.25
2023-04-18T10:52:14.006Z,1016.28
2023-04-18T10:53:13.976Z,1016.23
2023-04-18T10:54:14.215Z,1016.29
2023-04-18T10:55:13.969Z,1016.29
2023-04-18T10:56:13.951Z,1016.26
2023-04-18T10:57:13.929Z,1016.27
2023-04-18T10:58:13.923Z,1016.29
2023-04-18T10:59:13.927Z,1016.30
2023-04-18T11:00:13.931Z,1016.20
2023-04-18T11:01:13.910Z,1016.20
2023-04-18T11:02:13.917Z,1016.20
2023-04-18T11:03:14.083Z,1016.26
2023-04-18T11:04:14.363Z,1016.20
2023-04-18T11:05:13.893Z,1016.23
2023-04-18T11:06:13.844Z,1016.20
2023-04-18T11:07:13.833Z,1016.20
2023-04-18T11:08:13.827Z,1016.21
2023-04-18T11:09:13.981Z,1016.22
2023-04-18T11:10:13.854Z,1016.20
2023-04-18T11:11:13.791Z,1016.31
2023-04-18T11:12:13.782Z,1016.18
2023-04-18T11:13:13.779Z,1016.18
2023-04-18T11:14:14.108Z,1016.17
2023-04-18T11:15:13.775Z,1016.15
2023-04-18T11:16:13.800Z,1016.20
2023-04-18T11:17:13.742Z,1016.19
2023-04-18T11:18:13.793Z,1016.19
2023-04-18T11:19:13.725Z,1016.16
2023-04-18T11:20:13.714Z,1016.26
2023-04-18T11:21:13.689Z,1016.27
2023-04-18T11:22:13.678Z,1016.21
2023-04-18T11:23:13.674Z,1016.18
2023-04-18T11:24:13.834Z,1016.23
2023-04-18T11:25:13.661Z,1016.27
2023-04-18T11:26:13.654Z,1016.25
2023-04-18T11:27:13.622Z,1016.23
2023-04-18T11:28:13.618Z,1016.24
2023-04-18T11:29:13.602Z,1016.22
2023-04-18T11:30:13.602Z,1016.17
2023-04-18T11:31:13.595Z,1016.24
2023-04-18T11:32:13.653Z,1016.26
2023-04-18T11:33:13.606Z,1016.26
2023-04-18T11:34:13.690Z,1016.14
2023-04-18T11:35:13.553Z,1016.11
2023-04-18T11:36:13.555Z,1016.20
2023-04-18T11:37:13.534Z,1016.13
2023-04-18T11:38:13.514Z,1016.08
2023-04-18T11:39:13.518Z,1016.15
2023-04-18T11:40:13.483Z,1016.16
2023-04-18T11:41:13.482Z,1016.18
2023-04-18T11:42:13.492Z,1016.27
2023-04-18T11:43:13.464Z,1016.20
2023-04-18T11:44:13.668Z,1016.29
2023-04-18T11:45:13.475Z,1016.23
2023-04-18T11:46:13.508Z,1016.21
2023-04-18T11:47:13.417Z,1016.23
2023-04-18T11:48:13.398Z,1016.29
2023-04-18T11:49:13.392Z,1016.23
2023-04-18T11:50:13.388Z,1016.19
2023-04-18T11:51:13.382Z,1016.24
2023-04-18T11:52:13.366Z,1016.15
2023-04-18T11:53:13.370Z,1016.21
2023-04-18T11:54:13.526Z,1016.18
2023-04-18T11:55:13.350Z,1016.23
2023-04-18T11:56:13.317Z,1016.26
2023-04-18T11:57:13.322Z,1016.16
2023-04-18T11:58:13.301Z,1016.09
2023-04-18T11:59:13.290Z,1016.15
2023-04-18T12:00:13.302Z,1016.19
2023-04-18T12:01:13.287Z,1016.26
2023-04-18T12:02:16.792Z,1016.14
2023-04-18T12:03:14.055Z,1016.15
2023-04-18T12:04:13.678Z,1016.21
2023-04-18T12:05:13.426Z,1016.04
2023-04-18T12:06:13.334Z,1016.10
2023-04-18T12:07:13.223Z,1016.20
2023-04-18T12:08:13.248Z,1016.19